ADDS METAR Data INFO
IDs: Format: Raw Decoded Include TAF

Data at: 2121 UTC 21 Nov 2017

METAR for:KMWO (Middletown/Hook Fld, OH, US)
Text:KMWO 212115Z AUTO 22010KT 10SM CLR 12/01 A2994 RMK AO2 PWINO T01210007
Temperature: 12.1°C ( 54°F)
Dewpoint: 0.7°C ( 33°F) [RH = 46%]
Pressure (altimeter):29.94 inches Hg (1014.0 mb)
Winds:from the SW (220 degrees) at 12 MPH (10 knots; 5.1 m/s)
Visibility:10 or more sm (16+ km)
Ceiling:at least 12,000 feet AGL
Clouds:sky clear below 12,000 feet AGL
QC Flag:automated observation with no human augmentation